createdAt,value
2022-07-29T07:55:19.797Z,16.8
2022-07-29T10:05:35.985Z,18
2022-07-29T10:15:29.107Z,17.8
2022-07-29T10:45:30.302Z,17.7
2022-07-29T10:55:31.043Z,17.7
2022-07-29T11:15:32.575Z,17.6
2022-07-29T11:35:37.740Z,17.3
2022-07-29T11:35:39.976Z,17.4
2022-07-29T11:55:50.705Z,17.7
2022-07-29T12:05:47.884Z,17.9
2022-07-29T12:25:42.216Z,19
2022-07-29T12:35:42.834Z,18.9
2022-07-29T12:55:50.935Z,19.7
2022-07-29T13:05:48.667Z,19.7
2022-07-29T13:15:44.595Z,20.2
2022-07-29T13:25:51.749Z,20.9
2022-07-29T13:35:45.003Z,21
2022-07-29T13:45:45.942Z,21.6
2022-07-29T14:15:47.032Z,22.3
2022-07-29T14:25:54.354Z,22.9
2022-07-29T14:35:47.874Z,23.2
2022-07-29T14:45:48.055Z,23.1
2022-07-29T14:55:55.517Z,23.4
2022-07-29T15:05:49.406Z,23.8
2022-07-29T15:15:50.187Z,24
2022-07-29T15:35:51.296Z,24
2022-07-29T15:46:28.504Z,24.3
2022-07-29T15:55:51.822Z,24.3
2022-07-29T16:05:59.158Z,24.7
2022-07-29T16:16:01.949Z,24.7
2022-07-29T16:26:00.724Z,24.8
2022-07-29T16:35:53.685Z,24.6
2022-07-29T16:55:54.625Z,24.6
2022-07-29T17:16:01.910Z,24.1
2022-07-29T17:35:56.508Z,23.6
2022-07-29T17:45:59.495Z,23.6
2022-07-29T17:55:58.110Z,23.5
2022-07-29T18:05:58.914Z,23.5
2022-07-29T18:16:00.583Z,23.5
2022-07-29T18:26:00.404Z,23.5
2022-07-29T18:36:11.328Z,23.1
2022-07-29T18:46:00.951Z,22.8
2022-07-29T19:16:03.205Z,22.2
2022-07-29T19:26:03.413Z,22
2022-07-29T19:36:03.623Z,21.7
2022-07-29T19:46:03.845Z,21.5
2022-07-29T19:56:04.697Z,21.2
2022-07-29T20:06:04.748Z,20.9
2022-07-29T20:16:05.730Z,20.6
2022-07-29T20:26:08.823Z,20.2
2022-07-29T20:36:06.434Z,20
2022-07-29T20:46:07.099Z,19.7
2022-07-29T20:56:07.488Z,19.3
2022-07-29T21:06:07.655Z,19.3
2022-07-29T21:16:15.130Z,19
2022-07-29T21:26:12.568Z,18.9
2022-07-29T21:36:42.639Z,18.8
2022-07-29T21:56:10.967Z,18.4
2022-07-29T22:06:11.299Z,18.3
2022-07-29T22:26:18.113Z,18.2
2022-07-29T22:46:11.894Z,17.9
2022-07-29T22:56:12.401Z,17.7
2022-07-29T23:06:12.703Z,17.7
2022-07-29T23:16:26.200Z,17.6
2022-07-29T23:26:13.987Z,17.6
2022-07-29T23:36:14.284Z,17.5
2022-07-29T23:46:14.835Z,17.2
2022-07-29T23:56:22.531Z,17.1
